createdAt,value
2023-08-14T00:01:59.818Z,3.10
2023-08-14T00:04:26.537Z,3.47
2023-08-14T00:06:54.749Z,3.42
2023-08-14T00:09:21.736Z,3.55
2023-08-14T00:11:48.778Z,3.55
2023-08-14T00:14:15.523Z,3.58
2023-08-14T00:16:42.265Z,3.90
2023-08-14T00:19:09.123Z,3.88
2023-08-14T00:21:36.389Z,3.80
2023-08-14T00:24:03.407Z,3.60
2023-08-14T00:26:30.102Z,4.00
2023-08-14T00:28:56.772Z,3.58
2023-08-14T00:31:23.607Z,3.45
2023-08-14T00:33:53.290Z,3.22
2023-08-14T00:36:19.996Z,3.28
2023-08-14T00:38:46.692Z,3.15
2023-08-14T00:41:13.494Z,3.10
2023-08-14T00:43:40.526Z,2.80
2023-08-14T00:46:07.880Z,3.28
2023-08-14T00:48:34.921Z,3.22
2023-08-14T00:51:02.003Z,3.38
2023-08-14T00:53:30.570Z,3.42
2023-08-14T00:55:58.763Z,2.95
2023-08-14T00:58:26.204Z,3.22
2023-08-14T01:00:54.003Z,3.10
2023-08-14T01:03:22.052Z,3.45
2023-08-14T01:05:48.777Z,2.90
2023-08-14T01:08:15.629Z,2.80
2023-08-14T01:10:59.404Z,2.65
2023-08-14T01:13:38.156Z,2.85
2023-08-14T01:16:11.462Z,3.13
2023-08-14T01:18:40.406Z,3.40
2023-08-14T01:21:26.289Z,3.17
2023-08-14T01:24:04.452Z,2.97
2023-08-14T01:26:32.166Z,3.00
2023-08-14T01:29:00.245Z,3.45
2023-08-14T01:31:28.718Z,3.45
2023-08-14T01:33:55.447Z,3.40
2023-08-14T01:36:29.066Z,2.65
2023-08-14T01:39:07.904Z,3.00
2023-08-14T01:41:47.667Z,2.45
2023-08-14T01:44:16.296Z,2.90
2023-08-14T01:46:44.820Z,2.30
2023-08-14T01:49:16.106Z,2.50
2023-08-14T01:51:43.357Z,2.70
2023-08-14T01:54:10.886Z,2.53
2023-08-14T01:56:37.576Z,2.60
2023-08-14T01:59:04.526Z,2.50
2023-08-14T02:01:31.382Z,2.63
2023-08-14T02:03:58.643Z,3.00
2023-08-14T02:06:27.720Z,2.80
2023-08-14T02:08:54.420Z,3.20
2023-08-14T02:11:21.202Z,3.00
2023-08-14T02:13:48.020Z,3.05
2023-08-14T02:16:15.089Z,2.42
2023-08-14T02:18:41.783Z,2.88
2023-08-14T02:21:08.473Z,3.00
2023-08-14T02:23:35.139Z,2.78
2023-08-14T02:26:02.118Z,2.97
2023-08-14T02:28:28.785Z,3.22
2023-08-14T02:30:55.560Z,3.08
2023-08-14T02:33:22.353Z,3.10
2023-08-14T02:35:49.351Z,2.90
2023-08-14T02:38:16.136Z,2.95
2023-08-14T02:40:44.446Z,3.17
2023-08-14T02:43:11.156Z,3.30
2023-08-14T02:45:38.431Z,2.90
2023-08-14T02:48:05.506Z,2.70
2023-08-14T02:50:33.021Z,2.90
2023-08-14T02:52:59.918Z,2.83
2023-08-14T02:55:27.198Z,2.85
2023-08-14T02:57:53.991Z,3.00
2023-08-14T03:00:21.507Z,3.58
2023-08-14T03:02:48.707Z,3.10
2023-08-14T03:05:15.624Z,2.97
2023-08-14T03:07:42.370Z,3.47
2023-08-14T03:10:09.848Z,3.42
2023-08-14T03:12:36.655Z,3.05
2023-08-14T03:15:04.126Z,3.05
2023-08-14T03:17:31.288Z,2.97
2023-08-14T03:19:58.247Z,3.10
2023-08-14T03:22:25.056Z,3.20
2023-08-14T03:24:51.933Z,3.10
2023-08-14T03:27:18.729Z,3.50
2023-08-14T03:29:45.513Z,3.28
2023-08-14T03:32:12.379Z,2.55
2023-08-14T03:34:39.072Z,3.20
2023-08-14T03:37:05.924Z,2.88
2023-08-14T03:39:33.470Z,3.20
2023-08-14T03:42:00.284Z,2.80
2023-08-14T03:44:27.382Z,2.78
2023-08-14T03:46:54.103Z,2.90
2023-08-14T03:49:20.895Z,3.38
2023-08-14T03:51:47.725Z,2.80
2023-08-14T03:54:14.579Z,3.45
2023-08-14T03:56:41.274Z,3.20
2023-08-14T03:59:08.484Z,3.05
2023-08-14T04:01:37.427Z,3.13
2023-08-14T04:04:04.895Z,2.80
2023-08-14T04:06:31.902Z,3.08
2023-08-14T04:08:58.907Z,3.00
2023-08-14T04:11:25.682Z,3.13
2023-08-14T04:13:52.581Z,2.92
2023-08-14T04:16:19.330Z,2.92
2023-08-14T04:18:46.120Z,3.28
2023-08-14T04:21:12.784Z,3.30
2023-08-14T04:23:39.494Z,3.22
2023-08-14T04:26:06.195Z,3.03
2023-08-14T04:28:33.132Z,3.63
2023-08-14T04:30:59.920Z,3.28
2023-08-14T04:33:27.945Z,4.00
2023-08-14T04:35:55.370Z,3.25
2023-08-14T04:38:22.147Z,2.92
2023-08-14T04:40:51.523Z,3.20
2023-08-14T04:43:19.214Z,3.33
2023-08-14T04:45:47.378Z,2.95
2023-08-14T04:48:14.268Z,3.60
2023-08-14T04:50:41.497Z,3.50
2023-08-14T04:53:08.347Z,3.10
2023-08-14T04:55:36.928Z,3.50
2023-08-14T04:58:03.804Z,3.10
2023-08-14T05:00:30.718Z,3.22
2023-08-14T05:03:00.025Z,2.97
2023-08-14T05:05:27.090Z,2.85
2023-08-14T05:07:53.815Z,3.20
2023-08-14T05:10:21.445Z,3.03
2023-08-14T05:12:48.276Z,2.63
2023-08-14T05:15:15.072Z,2.80
2023-08-14T05:17:41.790Z,2.78
2023-08-14T05:20:10.489Z,3.20
2023-08-14T05:22:37.251Z,2.95
2023-08-14T05:25:04.247Z,2.83
2023-08-14T05:27:37.839Z,2.75
2023-08-14T05:30:04.828Z,2.42
2023-08-14T05:32:31.710Z,2.78
2023-08-14T05:34:58.678Z,2.63
2023-08-14T05:37:25.436Z,3.13
2023-08-14T05:39:52.341Z,2.60
2023-08-14T05:42:19.299Z,3.03
2023-08-14T05:44:46.300Z,2.78
2023-08-14T05:47:13.026Z,2.50
2023-08-14T05:49:39.919Z,2.30
2023-08-14T05:52:06.620Z,2.45
2023-08-14T05:54:33.308Z,2.05
2023-08-14T05:56:59.950Z,2.10
2023-08-14T05:59:26.672Z,2.08
2023-08-14T06:01:55.636Z,2.35
2023-08-14T06:04:24.361Z,2.50
2023-08-14T06:06:51.267Z,2.50
2023-08-14T06:09:18.767Z,2.33
2023-08-14T06:11:45.416Z,2.50
2023-08-14T06:14:12.313Z,2.10
2023-08-14T06:16:39.109Z,2.45
2023-08-14T06:19:05.830Z,2.22
2023-08-14T06:21:32.676Z,2.10
2023-08-14T06:23:59.369Z,1.95
2023-08-14T06:26:26.126Z,1.75
2023-08-14T06:28:52.832Z,2.25
2023-08-14T06:31:19.660Z,2.40
2023-08-14T06:33:47.860Z,2.67
2023-08-14T06:36:14.985Z,2.17
2023-08-14T06:38:41.862Z,2.03
2023-08-14T06:41:08.606Z,2.45
2023-08-14T06:43:35.676Z,2.10
2023-08-14T06:46:02.502Z,1.90
2023-08-14T06:48:30.252Z,2.15
2023-08-14T06:50:59.010Z,2.13
2023-08-14T06:53:25.990Z,2.10
2023-08-14T06:55:52.942Z,2.05
2023-08-14T06:58:19.778Z,2.17
2023-08-14T07:00:48.233Z,2.25
2023-08-14T07:03:15.077Z,2.35
2023-08-14T07:05:41.865Z,2.17
2023-08-14T07:08:08.494Z,2.00
2023-08-14T07:10:35.185Z,2.20
2023-08-14T07:13:02.150Z,2.55
2023-08-14T07:15:29.179Z,2.17
2023-08-14T07:17:55.896Z,2.38
2023-08-14T07:20:25.973Z,2.13
2023-08-14T07:22:54.657Z,1.85
2023-08-14T07:25:21.421Z,2.10
2023-08-14T07:27:48.077Z,2.25
2023-08-14T07:30:15.608Z,2.25
2023-08-14T07:32:42.302Z,2.30
2023-08-14T07:35:09.075Z,2.20
2023-08-14T07:37:35.687Z,2.10
2023-08-14T07:40:02.410Z,2.15
2023-08-14T07:42:29.139Z,2.10
2023-08-14T07:44:55.845Z,2.30
2023-08-14T07:47:22.631Z,2.33
2023-08-14T07:49:49.336Z,2.15
2023-08-14T07:52:16.771Z,2.33
2023-08-14T07:54:43.850Z,2.22
2023-08-14T07:57:10.588Z,2.40
2023-08-14T07:59:37.212Z,2.13
2023-08-14T08:02:03.920Z,2.35
2023-08-14T08:04:40.195Z,2.30
2023-08-14T08:07:07.601Z,2.40
2023-08-14T08:09:34.283Z,2.00
2023-08-14T08:12:01.126Z,2.47
2023-08-14T08:14:28.055Z,2.45
2023-08-14T08:16:54.885Z,2.03
2023-08-14T08:19:22.624Z,2.22
2023-08-14T08:21:49.510Z,2.03
2023-08-14T08:24:16.333Z,2.20
2023-08-14T08:26:43.030Z,2.33
2023-08-14T08:29:09.680Z,2.67
2023-08-14T08:31:36.634Z,2.38
2023-08-14T08:34:03.517Z,2.17
2023-08-14T08:36:30.165Z,2.50
2023-08-14T08:38:56.914Z,2.22
2023-08-14T08:41:27.788Z,2.65
2023-08-14T08:44:01.614Z,2.28
2023-08-14T08:46:28.687Z,2.40
2023-08-14T08:48:55.562Z,3.20
2023-08-14T08:51:22.979Z,2.67
2023-08-14T08:53:49.976Z,2.70
2023-08-14T08:56:16.878Z,2.70
2023-08-14T08:58:43.949Z,3.50
2023-08-14T09:01:11.256Z,2.40
2023-08-14T09:03:38.097Z,2.58
2023-08-14T09:06:04.922Z,2.72
2023-08-14T09:08:32.318Z,2.60
2023-08-14T09:10:59.080Z,2.80
2023-08-14T09:13:32.299Z,2.47
2023-08-14T09:16:01.684Z,2.70
2023-08-14T09:18:28.663Z,3.05
2023-08-14T09:20:55.543Z,3.17
2023-08-14T09:23:23.063Z,3.45
2023-08-14T09:25:51.216Z,3.70
2023-08-14T09:28:18.521Z,3.58
2023-08-14T09:30:45.824Z,3.30
2023-08-14T09:33:13.490Z,3.15
2023-08-14T09:35:40.601Z,3.50
2023-08-14T09:38:07.392Z,3.92
2023-08-14T09:40:34.338Z,3.83
2023-08-14T09:43:01.697Z,3.65
2023-08-14T09:45:29.815Z,3.67
2023-08-14T09:48:05.248Z,3.50
2023-08-14T09:50:32.554Z,3.85
2023-08-14T09:53:00.611Z,3.55
2023-08-14T09:55:31.320Z,3.88
2023-08-14T09:57:58.187Z,3.50
2023-08-14T10:00:29.847Z,3.85
2023-08-14T10:02:57.041Z,3.35
2023-08-14T10:05:24.618Z,3.50
2023-08-14T10:07:54.490Z,3.80
2023-08-14T10:10:22.626Z,3.90
2023-08-14T10:12:53.052Z,4.00
2023-08-14T10:15:23.341Z,5.63
2023-08-14T10:18:02.393Z,4.20
2023-08-14T10:20:34.628Z,4.03
2023-08-14T10:23:02.657Z,3.95
2023-08-14T10:25:29.606Z,4.15
2023-08-14T10:27:56.412Z,4.32
2023-08-14T10:30:24.220Z,3.88
2023-08-14T10:32:52.222Z,3.75
2023-08-14T10:35:21.425Z,2.97
2023-08-14T10:38:00.075Z,3.30
2023-08-14T10:40:35.634Z,2.90
2023-08-14T10:43:02.706Z,3.28
2023-08-14T10:45:29.845Z,3.08
2023-08-14T10:48:02.074Z,3.50
2023-08-14T10:50:30.132Z,3.10
2023-08-14T10:52:57.617Z,3.60
2023-08-14T10:55:25.086Z,3.22
2023-08-14T10:57:52.214Z,2.95
2023-08-14T11:00:26.035Z,2.67
2023-08-14T11:03:07.007Z,3.53
2023-08-14T11:05:38.295Z,2.83
2023-08-14T11:08:12.297Z,3.05
2023-08-14T11:10:40.107Z,3.25
2023-08-14T11:13:10.529Z,2.85
2023-08-14T11:15:40.258Z,3.50
2023-08-14T11:18:11.864Z,2.67
2023-08-14T11:20:39.928Z,2.70
2023-08-14T11:23:07.297Z,2.97
2023-08-14T11:25:35.058Z,3.15
2023-08-14T11:28:02.336Z,2.70
2023-08-14T11:30:34.060Z,2.70
2023-08-14T11:33:05.218Z,2.80
2023-08-14T11:35:32.455Z,2.90
2023-08-14T11:37:59.329Z,2.65
2023-08-14T11:40:26.146Z,2.72
2023-08-14T11:42:53.202Z,3.10
2023-08-14T11:45:20.684Z,2.97
2023-08-14T11:47:50.915Z,3.10
2023-08-14T11:50:18.898Z,3.50
2023-08-14T11:52:46.039Z,3.47
2023-08-14T11:55:14.563Z,3.03
2023-08-14T11:57:44.247Z,3.35
2023-08-14T12:00:11.758Z,3.25
2023-08-14T12:02:42.114Z,3.50
2023-08-14T12:05:09.400Z,2.65
2023-08-14T12:07:37.044Z,2.40
2023-08-14T12:10:08.314Z,2.92
2023-08-14T12:12:36.678Z,2.45
2023-08-14T12:15:06.439Z,2.47
2023-08-14T12:17:34.689Z,2.80
2023-08-14T12:20:06.702Z,2.55
2023-08-14T12:22:33.357Z,2.70
2023-08-14T12:25:00.191Z,2.60
2023-08-14T12:27:29.082Z,2.78
2023-08-14T12:29:57.064Z,2.50
2023-08-14T12:32:24.822Z,2.38
2023-08-14T12:34:51.894Z,2.67
2023-08-14T12:37:19.012Z,3.22
2023-08-14T12:39:53.707Z,3.20
2023-08-14T12:42:20.676Z,3.00
2023-08-14T12:44:47.298Z,2.90
2023-08-14T12:47:14.078Z,2.95
2023-08-14T12:49:41.061Z,3.08
2023-08-14T12:52:11.140Z,3.50
2023-08-14T12:54:39.857Z,2.83
2023-08-14T12:57:07.529Z,3.00
2023-08-14T12:59:34.573Z,2.83
2023-08-14T13:02:01.310Z,3.00
2023-08-14T13:04:29.519Z,3.00
2023-08-14T13:06:56.649Z,3.67
2023-08-14T13:09:23.543Z,3.80
2023-08-14T13:11:50.341Z,3.58
2023-08-14T13:14:17.084Z,3.72
2023-08-14T13:16:43.825Z,3.10
2023-08-14T13:19:10.600Z,3.10
2023-08-14T13:21:37.272Z,3.05
2023-08-14T13:24:04.227Z,2.70
2023-08-14T13:26:34.111Z,2.83
2023-08-14T13:29:02.541Z,3.42
2023-08-14T13:31:30.738Z,2.90
2023-08-14T13:33:58.995Z,2.90
2023-08-14T13:36:26.034Z,2.97
2023-08-14T13:38:52.716Z,2.83
2023-08-14T13:41:19.347Z,2.65
2023-08-14T13:43:46.426Z,2.90
2023-08-14T13:46:13.203Z,3.10
2023-08-14T13:48:39.909Z,3.38
2023-08-14T13:51:06.550Z,3.17
2023-08-14T13:53:33.161Z,2.88
2023-08-14T13:56:00.092Z,3.00
2023-08-14T13:58:26.983Z,2.80
2023-08-14T14:00:53.872Z,2.85
2023-08-14T14:03:20.590Z,3.28
2023-08-14T14:05:47.458Z,3.10
2023-08-14T14:08:14.169Z,2.90
2023-08-14T14:10:40.963Z,3.00
2023-08-14T14:13:07.927Z,2.72
2023-08-14T14:15:34.808Z,3.22
2023-08-14T14:18:01.652Z,3.13
2023-08-14T14:20:28.562Z,3.30
2023-08-14T14:22:55.278Z,3.05
2023-08-14T14:25:22.283Z,2.95
2023-08-14T14:27:48.962Z,3.22
2023-08-14T14:30:15.748Z,2.85
2023-08-14T14:32:42.420Z,2.70
2023-08-14T14:35:09.363Z,3.20
2023-08-14T14:37:36.028Z,2.97
2023-08-14T14:40:02.966Z,2.97
2023-08-14T14:42:29.700Z,3.15
2023-08-14T14:44:56.421Z,3.13
2023-08-14T14:47:24.716Z,3.00
2023-08-14T14:49:52.101Z,2.70
2023-08-14T14:52:18.819Z,2.53
2023-08-14T14:54:45.593Z,2.47
2023-08-14T14:57:12.212Z,2.90
2023-08-14T14:59:39.110Z,2.80
2023-08-14T15:02:19.269Z,2.40
2023-08-14T15:04:50.562Z,3.00
2023-08-14T15:07:17.549Z,3.17
2023-08-14T15:09:44.419Z,3.40
2023-08-14T15:12:11.074Z,3.47
2023-08-14T15:14:37.720Z,3.80
2023-08-14T15:17:04.356Z,3.22
2023-08-14T15:19:31.035Z,4.18
2023-08-14T15:21:57.676Z,3.45
2023-08-14T15:24:24.392Z,3.60
2023-08-14T15:26:52.326Z,3.00
2023-08-14T15:29:19.363Z,3.10
2023-08-14T15:31:46.173Z,3.50
2023-08-14T15:34:13.401Z,3.25
2023-08-14T15:36:40.053Z,3.20
2023-08-14T15:39:07.198Z,3.30
2023-08-14T15:41:33.849Z,4.38
2023-08-14T15:44:00.723Z,3.10
2023-08-14T15:46:27.433Z,3.50
2023-08-14T15:48:54.157Z,3.97
2023-08-14T15:51:22.520Z,3.95
2023-08-14T15:53:49.217Z,4.72
2023-08-14T15:56:15.840Z,4.72
2023-08-14T15:58:42.600Z,3.40
2023-08-14T16:01:09.217Z,5.43
2023-08-14T16:03:37.149Z,3.88
2023-08-14T16:06:06.168Z,3.55
2023-08-14T16:08:33.011Z,4.20
2023-08-14T16:10:59.756Z,4.53
2023-08-14T16:13:26.478Z,4.60
2023-08-14T16:15:53.104Z,3.63
2023-08-14T16:18:19.823Z,3.63
2023-08-14T16:20:46.525Z,3.28
2023-08-14T16:23:13.793Z,3.03
2023-08-14T16:25:40.731Z,3.50
2023-08-14T16:28:07.577Z,3.45
2023-08-14T16:30:34.308Z,3.28
2023-08-14T16:33:01.120Z,3.58
2023-08-14T16:35:31.342Z,3.47
2023-08-14T16:37:58.210Z,3.10
2023-08-14T16:40:25.139Z,3.40
2023-08-14T16:42:51.811Z,3.53
2023-08-14T16:45:18.493Z,3.20
2023-08-14T16:47:45.148Z,3.42
2023-08-14T16:50:11.799Z,3.60
2023-08-14T16:52:38.419Z,3.15
2023-08-14T16:55:05.496Z,3.00
2023-08-14T16:57:32.393Z,3.40
2023-08-14T16:59:59.577Z,3.15
2023-08-14T17:02:26.308Z,3.55
2023-08-14T17:04:53.028Z,3.80
2023-08-14T17:07:19.920Z,3.25
2023-08-14T17:09:46.841Z,3.40
2023-08-14T17:12:13.484Z,3.20
2023-08-14T17:14:40.214Z,3.30
2023-08-14T17:17:06.916Z,2.90
2023-08-14T17:19:33.533Z,3.13
2023-08-14T17:22:00.319Z,2.80
2023-08-14T17:24:26.999Z,3.35
2023-08-14T17:26:53.831Z,3.00
2023-08-14T17:29:21.776Z,2.83
2023-08-14T17:31:48.718Z,3.10
2023-08-14T17:34:15.643Z,3.17
2023-08-14T17:36:42.413Z,3.10
2023-08-14T17:39:10.082Z,3.03
2023-08-14T17:41:38.055Z,2.70
2023-08-14T17:44:04.912Z,2.58
2023-08-14T17:46:31.559Z,2.83
2023-08-14T17:48:58.282Z,2.50
2023-08-14T17:51:24.923Z,2.90
2023-08-14T17:53:53.307Z,2.78
2023-08-14T17:56:21.639Z,2.80
2023-08-14T17:58:48.664Z,2.92
2023-08-14T18:01:15.341Z,3.03
2023-08-14T18:03:42.134Z,3.25
2023-08-14T18:06:08.807Z,2.95
2023-08-14T18:08:35.813Z,2.80
2023-08-14T18:11:02.866Z,2.80
2023-08-14T18:13:29.579Z,2.75
2023-08-14T18:15:59.307Z,2.88
2023-08-14T18:20:53.356Z,3.17
2023-08-14T18:23:20.626Z,3.13
2023-08-14T18:25:55.252Z,3.03
2023-08-14T18:28:22.528Z,3.20
2023-08-14T18:30:49.508Z,3.53
2023-08-14T18:33:16.184Z,3.45
2023-08-14T18:35:43.001Z,3.20
2023-08-14T18:38:09.855Z,3.40
2023-08-14T18:40:36.885Z,3.50
2023-08-14T18:43:04.169Z,3.50
2023-08-14T18:45:30.997Z,3.58
2023-08-14T18:47:57.770Z,3.10
2023-08-14T18:52:53.409Z,3.45
2023-08-14T18:55:20.082Z,3.45
2023-08-14T18:57:46.977Z,3.25
2023-08-14T19:00:13.756Z,4.40
2023-08-14T19:02:40.409Z,4.47
2023-08-14T19:05:07.962Z,4.78
2023-08-14T19:07:34.897Z,4.38
2023-08-14T19:10:01.655Z,4.70
2023-08-14T19:12:29.124Z,4.53
2023-08-14T19:14:55.738Z,4.15
2023-08-14T19:17:22.416Z,4.75
2023-08-14T19:19:50.187Z,4.75
2023-08-14T19:22:43.372Z,5.40
2023-08-14T19:25:10.113Z,5.10
2023-08-14T19:27:37.544Z,4.47
2023-08-14T19:30:07.711Z,4.75
2023-08-14T19:35:01.317Z,4.78
2023-08-14T19:37:28.199Z,5.20
2023-08-14T19:39:54.986Z,4.90
2023-08-14T19:42:21.620Z,4.80
2023-08-14T19:44:48.196Z,4.38
2023-08-14T19:47:16.051Z,4.97
2023-08-14T19:49:42.724Z,5.03
2023-08-14T19:52:09.376Z,5.30
2023-08-14T19:54:36.170Z,5.10
2023-08-14T19:57:02.849Z,5.47
2023-08-14T19:59:29.548Z,5.00
2023-08-14T20:01:57.226Z,4.72
2023-08-14T20:04:23.866Z,4.28
2023-08-14T20:06:50.628Z,4.88
2023-08-14T20:09:17.370Z,4.30
2023-08-14T20:11:44.488Z,6.60
2023-08-14T20:14:11.960Z,7.10
2023-08-14T20:16:38.642Z,4.70
2023-08-14T20:19:05.571Z,4.38
2023-08-14T20:21:32.469Z,4.82
2023-08-14T20:23:59.121Z,6.28
2023-08-14T20:26:25.819Z,7.93
2023-08-14T20:28:52.546Z,7.65
2023-08-14T20:31:21.218Z,6.75
2023-08-14T20:33:48.076Z,7.03
2023-08-14T20:36:27.946Z,7.18
2023-08-14T20:38:54.731Z,6.53
2023-08-14T20:41:21.488Z,7.65
2023-08-14T20:43:49.397Z,6.63
2023-08-14T20:46:16.194Z,7.20
2023-08-14T20:48:43.092Z,7.95
2023-08-14T20:51:10.021Z,7.40
2023-08-14T20:53:36.689Z,7.20
2023-08-14T20:56:03.664Z,7.45
2023-08-14T20:58:30.430Z,7.57
2023-08-14T21:00:57.680Z,7.45
2023-08-14T21:03:25.104Z,6.88
2023-08-14T21:05:55.229Z,6.93
2023-08-14T21:08:22.172Z,7.13
2023-08-14T21:10:49.234Z,6.78
2023-08-14T21:13:15.855Z,6.75
2023-08-14T21:15:42.670Z,7.63
2023-08-14T21:18:09.363Z,6.97
2023-08-14T21:20:35.992Z,6.88
2023-08-14T21:23:02.641Z,6.43
2023-08-14T21:25:34.895Z,6.43
2023-08-14T21:28:11.291Z,5.88
2023-08-14T21:30:38.285Z,5.15
2023-08-14T21:33:05.406Z,5.55
2023-08-14T21:35:32.038Z,5.20
2023-08-14T21:37:59.738Z,5.57
2023-08-14T21:40:26.406Z,5.80
2023-08-14T21:42:53.174Z,6.15
2023-08-14T21:45:19.851Z,6.47
2023-08-14T21:47:46.599Z,6.80
2023-08-14T21:50:13.266Z,9.38
2023-08-14T21:52:40.124Z,6.90
2023-08-14T21:55:07.372Z,6.53
2023-08-14T21:57:34.222Z,7.10
2023-08-14T22:00:00.879Z,7.30
2023-08-14T22:02:27.577Z,6.72
2023-08-14T22:04:54.384Z,9.32
2023-08-14T22:07:21.384Z,9.65
2023-08-14T22:09:48.183Z,8.07
2023-08-14T22:12:15.082Z,7.55
2023-08-14T22:14:41.725Z,6.90
2023-08-14T22:17:08.455Z,7.85
2023-08-14T22:19:35.194Z,8.05
2023-08-14T22:22:02.053Z,8.02
2023-08-14T22:24:40.558Z,7.82
2023-08-14T22:27:08.326Z,9.27
2023-08-14T22:29:35.271Z,8.55
2023-08-14T22:32:01.894Z,8.52
2023-08-14T22:34:28.723Z,8.68
2023-08-14T22:36:55.380Z,8.70
2023-08-14T22:39:22.016Z,8.50
2023-08-14T22:41:48.637Z,8.60
2023-08-14T22:44:15.254Z,7.72
2023-08-14T22:46:42.364Z,7.90
2023-08-14T22:49:08.988Z,7.25
2023-08-14T22:51:35.911Z,8.18
2023-08-14T22:54:02.658Z,9.80
2023-08-14T22:56:29.330Z,9.00
2023-08-14T22:58:56.082Z,9.07
2023-08-14T23:01:22.827Z,10.00
2023-08-14T23:03:49.559Z,10.00
2023-08-14T23:06:16.217Z,9.95
2023-08-14T23:08:43.130Z,10.00
2023-08-14T23:11:09.902Z,9.60
2023-08-14T23:13:36.596Z,8.40
2023-08-14T23:16:03.856Z,8.45
2023-08-14T23:18:30.579Z,7.75
2023-08-14T23:20:57.183Z,7.70
2023-08-14T23:23:24.099Z,7.00
2023-08-14T23:25:50.835Z,6.90
2023-08-14T23:28:17.819Z,6.90
2023-08-14T23:30:44.750Z,7.45
2023-08-14T23:33:11.515Z,7.57
2023-08-14T23:35:39.101Z,6.93
2023-08-14T23:38:06.051Z,6.72
2023-08-14T23:40:32.904Z,7.40
2023-08-14T23:42:59.600Z,7.28
2023-08-14T23:45:26.370Z,7.85
2023-08-14T23:47:53.028Z,8.10
2023-08-14T23:50:19.698Z,6.75
2023-08-14T23:52:46.322Z,6.95
2023-08-14T23:55:12.978Z,6.20
2023-08-14T23:57:39.600Z,6.28
